Time;durP1;ratioP1;P1;durP2;ratioP2;P2;SDS_P1;SDS_P2;PMS_P1;PMS_P2;Temp;Humidity;BMP_temperature;BMP_pressure;BME280_temperature;BME280_humidity;BME280_pressure;Samples;Min_cycle;Max_cycle;Signal;HPM_P1;HPM_P2
2021/12/14 00:02:10;;;;;;;21.02;14.38;;;;;;;3.00;81.21;101175.62;1748764;80;21022;-73
2021/12/14 00:04:39;;;;;;;19.55;13.55;;;;;;;3.04;81.26;101179.50;1746803;81;21088;-74
2021/12/14 00:07:10;;;;;;;20.15;13.38;;;;;;;3.07;81.13;101180.13;1708342;83;21133;-75
2021/12/14 00:09:40;;;;;;;20.65;13.78;;;;;;;3.06;81.04;101188.56;1719055;83;22285;-74
2021/12/14 00:15:08;;;;;;;21.75;15.68;;;;;;;3.03;81.02;101189.75;1703840;83;21785;-74
2021/12/14 00:17:50;;;;;;;22.37;14.03;;;;;;;3.04;81.02;101188.73;1755764;81;21054;-72
2021/12/14 00:20:22;;;;;;;20.05;14.05;;;;;;;3.06;80.98;101191.20;1705510;83;21032;-72
2021/12/14 00:25:34;;;;;;;17.12;12.33;;;;;;;3.06;80.96;101185.92;1717771;83;21631;-73
2021/12/14 00:28:08;;;;;;;18.32;11.90;;;;;;;3.05;80.87;101185.59;1720419;82;21029;-75
2021/12/14 00:30:36;;;;;;;16.67;11.40;;;;;;;3.02;80.85;101181.50;1717637;81;21033;-74
2021/12/14 00:33:11;;;;;;;17.62;11.95;;;;;;;3.01;80.87;101185.16;1734862;81;22112;-75
2021/12/14 00:35:40;;;;;;;17.70;11.80;;;;;;;3.00;80.88;101189.32;1746544;81;21041;-73
2021/12/14 00:38:07;;;;;;;18.48;11.97;;;;;;;2.98;80.85;101184.73;1741106;81;21772;-73
2021/12/14 00:40:38;;;;;;;18.23;12.53;;;;;;;2.94;80.85;101182.98;1709232;81;21087;-74
2021/12/14 00:43:08;;;;;;;17.92;11.68;;;;;;;2.93;80.89;101185.79;1686956;83;21152;-74
2021/12/14 00:45:39;;;;;;;19.42;13.00;;;;;;;2.92;80.92;101178.38;1737385;81;21072;-73
2021/12/14 00:48:08;;;;;;;18.05;12.10;;;;;;;2.91;80.98;101179.40;1749053;81;21632;-74
2021/12/14 00:50:35;;;;;;;17.48;12.05;;;;;;;2.94;81.02;101182.98;1749657;81;21986;-75
2021/12/14 00:53:01;;;;;;;19.48;12.73;;;;;;;2.92;81.00;101183.66;1726124;81;21043;-74
2021/12/14 00:55:35;;;;;;;18.55;12.53;;;;;;;2.93;81.03;101179.20;1693161;82;21070;-74
2021/12/14 00:58:03;;;;;;;19.17;12.05;;;;;;;2.89;81.01;101177.45;1715484;81;21188;-74
2021/12/14 01:00:34;;;;;;;17.67;12.18;;;;;;;2.88;81.02;101176.33;1725199;82;21037;-74
2021/12/14 01:03:03;;;;;;;16.00;10.93;;;;;;;2.86;81.05;101174.38;1722492;81;22317;-74
2021/12/14 01:05:35;;;;;;;16.37;11.40;;;;;;;2.88;81.07;101176.33;1728902;82;21014;-74
2021/12/14 01:08:04;;;;;;;16.75;11.85;;;;;;;2.87;81.02;101180.80;1743979;81;26450;-74
2021/12/14 01:10:45;;;;;;;16.07;11.10;;;;;;;2.86;81.06;101181.78;1747837;81;21333;-73
2021/12/14 01:13:12;;;;;;;15.58;10.93;;;;;;;2.87;81.09;101178.66;1746820;81;21505;-73
2021/12/14 01:16:01;;;;;;;17.57;11.95;;;;;;;2.87;81.09;101185.27;1711568;82;21149;-72
2021/12/14 01:18:34;;;;;;;16.82;11.88;;;;;;;2.86;81.12;101184.42;1689136;82;21030;-73
2021/12/14 01:21:12;;;;;;;17.35;12.15;;;;;;;2.84;81.15;101182.49;1755147;81;21018;-73
2021/12/14 01:23:34;;;;;;;17.73;11.83;;;;;;;2.83;81.20;101183.51;1735243;81;21609;-73
2021/12/14 01:26:09;;;;;;;17.10;11.80;;;;;;;2.88;81.25;101186.88;1711085;81;21494;-73
2021/12/14 01:28:37;;;;;;;15.35;9.93;;;;;;;2.92;81.22;101183.66;1685961;82;22198;-73
2021/12/14 01:31:23;;;;;;;16.70;11.45;;;;;;;2.96;81.20;101188.05;1730805;82;20998;-72
2021/12/14 01:33:48;;;;;;;14.83;10.90;;;;;;;2.96;81.07;101192.01;1698618;82;21647;-73
2021/12/14 01:41:52;;;;;;;18.05;11.73;;;;;;;2.90;81.07;101189.66;1722740;82;21186;-73
2021/12/14 01:44:18;;;;;;;16.95;11.78;;;;;;;2.88;81.05;101195.61;1709914;82;22315;-74
2021/12/14 01:46:53;;;;;;;17.07;11.40;;;;;;;2.90;81.08;101190.16;1754886;81;21054;-74
2021/12/14 01:49:38;;;;;;;17.20;11.83;;;;;;;2.92;81.16;101195.53;1720270;82;21092;-74
2021/12/14 01:52:31;;;;;;;16.77;11.55;;;;;;;2.94;81.14;101198.81;1717501;83;21155;-73
2021/12/14 01:55:06;;;;;;;18.27;11.80;;;;;;;2.99;81.19;101193.76;1726920;83;21069;-73
2021/12/14 01:57:33;;;;;;;17.82;11.12;;;;;;;3.05;81.13;101198.78;1729358;81;21344;-74
2021/12/14 02:00:01;;;;;;;16.70;11.20;;;;;;;3.11;80.97;101209.09;1734606;81;21049;-74
2021/12/14 02:02:42;;;;;;;17.17;10.60;;;;;;;3.08;80.86;101204.19;1707146;81;21049;-74
2021/12/14 02:05:10;;;;;;;17.30;11.33;;;;;;;3.05;80.79;101200.11;1717384;82;21600;-74
2021/12/14 02:07:39;;;;;;;18.70;12.05;;;;;;;3.02;80.68;101195.20;1706663;83;20999;-74
2021/12/14 02:10:11;;;;;;;16.67;11.05;;;;;;;3.00;80.68;101200.69;1738980;82;21144;-74
2021/12/14 02:12:40;;;;;;;;;;;;;;;3.00;80.61;101196.73;1741172;81;21429;-74
2021/12/14 02:15:15;;;;;;;17.10;11.68;;;;;;;2.94;80.46;101196.17;1740032;82;20448;-74
2021/12/14 02:17:43;;;;;;;17.98;12.10;;;;;;;2.90;80.48;101192.29;1758453;81;20995;-74
2021/12/14 02:20:12;;;;;;;19.55;13.22;;;;;;;2.86;80.47;101193.66;1758567;81;21572;-75
2021/12/14 02:22:39;;;;;;;17.50;11.95;;;;;;;2.87;80.54;101195.30;1726005;81;21805;-74
2021/12/14 02:25:08;;;;;;;18.23;12.47;;;;;;;2.87;80.53;101190.03;1706420;84;21050;-74
2021/12/14 02:27:40;;;;;;;17.98;12.50;;;;;;;2.87;80.52;101190.03;1731013;82;20997;-74
2021/12/14 02:30:11;;;;;;;16.62;11.70;;;;;;;2.89;80.45;101190.64;1736408;81;21011;-74
2021/12/14 02:32:38;;;;;;;18.55;11.83;;;;;;;2.89;80.46;101190.64;1731386;81;21734;-74
2021/12/14 02:35:11;;;;;;;17.48;11.95;;;;;;;2.88;80.43;101193.48;1730917;82;21023;-75
2021/12/14 02:37:58;;;;;;;19.95;12.78;;;;;;;2.87;80.40;101196.63;1731065;83;21462;-74
2021/12/14 02:40:56;;;;;;;19.40;12.53;;;;;;;2.86;80.36;101191.02;1730507;83;21054;-75
2021/12/14 02:43:37;;;;;;;21.48;13.20;;;;;;;2.87;80.34;101189.22;1731150;82;20947;-74
2021/12/14 02:46:13;;;;;;;16.50;12.68;;;;;;;2.84;80.30;101186.45;1730853;83;21127;-74
2021/12/14 02:48:43;;;;;;;18.37;12.53;;;;;;;2.84;80.36;101185.13;1729209;81;21166;-75
2021/12/14 02:51:23;;;;;;;17.62;12.82;;;;;;;2.87;80.37;101191.35;1730869;83;21046;-75
2021/12/14 02:54:00;;;;;;;20.40;13.75;;;;;;;2.83;80.31;101182.19;1730187;83;21470;-75
2021/12/14 02:56:29;;;;;;;20.08;13.30;;;;;;;2.81;80.35;101190.78;1725764;83;21074;-76
2021/12/14 02:59:11;;;;;;;19.37;14.10;;;;;;;2.82;80.38;101190.58;1730948;82;21824;-76
2021/12/14 03:01:40;;;;;;;23.18;15.30;;;;;;;2.84;80.40;101200.96;1730727;83;21058;-76
2021/12/14 03:04:09;;;;;;;22.40;15.50;;;;;;;2.86;80.39;101198.93;1731019;82;21462;-75
2021/12/14 03:06:47;;;;;;;22.45;15.40;;;;;;;2.87;80.36;101199.27;1730852;82;21065;-75
2021/12/14 03:09:39;;;;;;;21.73;15.23;;;;;;;2.91;80.36;101197.06;1731038;83;21055;-76
2021/12/14 03:12:09;;;;;;;21.55;15.25;;;;;;;2.92;80.26;101208.73;1730626;82;21547;-76
2021/12/14 03:14:38;;;;;;;21.97;15.00;;;;;;;2.90;80.19;101206.80;1730829;83;20964;-77
2021/12/14 03:17:05;;;;;;;22.10;14.28;;;;;;;2.89;80.11;101205.15;1730946;83;21047;-76
2021/12/14 03:19:32;;;;;;;21.90;14.43;;;;;;;2.91;80.11;101204.47;1731016;82;21014;-77
2021/12/14 03:22:00;;;;;;;21.95;14.03;;;;;;;2.90;80.05;101205.98;1730612;81;21578;-77
2021/12/14 03:24:26;;;;;;;19.48;13.40;;;;;;;2.88;80.06;101210.63;1730792;81;21585;-77
2021/12/14 03:26:54;;;;;;;20.65;13.72;;;;;;;2.88;80.08;101211.44;1714845;83;21054;-76
2021/12/14 03:29:25;;;;;;;20.50;13.45;;;;;;;2.87;80.06;101213.78;1730519;81;21054;-77
2021/12/14 03:31:56;;;;;;;20.27;13.80;;;;;;;2.87;80.10;101213.78;1729619;82;21042;-77
2021/12/14 03:34:29;;;;;;;18.98;13.22;;;;;;;2.89;80.11;101211.75;1731001;82;21125;-76
2021/12/14 03:37:04;;;;;;;19.07;12.98;;;;;;;2.91;80.11;101216.84;1731381;83;21521;-77
2021/12/14 03:39:36;;;;;;;18.95;12.80;;;;;;;2.94;80.16;101217.28;1731339;81;20944;-76
2021/12/14 03:42:26;;;;;;;18.82;13.18;;;;;;;2.96;80.08;101219.23;1708307;84;21037;-77
2021/12/14 03:44:55;;;;;;;20.60;13.70;;;;;;;2.95;80.05;101213.63;1708171;84;20982;-77
2021/12/14 03:47:33;;;;;;;;;;;;;;;2.95;79.96;101216.27;1713529;83;21045;-77
2021/12/14 03:50:04;;;;;;;18.20;12.93;;;;;;;2.93;79.94;101210.86;1730400;81;21140;-78
2021/12/14 03:52:34;;;;;;;19.15;13.50;;;;;;;2.94;79.96;101212.52;1743631;81;21057;-77
2021/12/14 03:55:12;;;;;;;17.67;12.70;;;;;;;2.90;79.91;101210.76;1758187;81;21018;-77
2021/12/14 03:57:38;;;;;;;17.10;12.35;;;;;;;2.88;79.92;101207.48;1728845;81;20997;-77
2021/12/14 04:00:11;;;;;;;17.87;12.75;;;;;;;2.89;79.95;101209.11;1709036;82;21027;-76
2021/12/14 04:02:40;;;;;;;20.15;13.85;;;;;;;2.92;79.99;101211.37;1701833;82;21501;-77
2021/12/14 04:05:11;;;;;;;17.52;13.35;;;;;;;2.94;79.96;101217.28;1708020;84;20979;-78
2021/12/14 04:07:42;;;;;;;18.62;12.82;;;;;;;2.98;79.97;101216.39;1708641;82;21126;-78
2021/12/14 04:10:14;;;;;;;18.48;12.53;;;;;;;3.03;79.94;101214.02;1729428;82;21140;-78
2021/12/14 04:12:42;;;;;;;19.60;13.33;;;;;;;3.07;79.90;101217.90;1736315;82;21089;-77
2021/12/14 04:15:10;;;;;;;17.73;12.80;;;;;;;3.09;79.78;101219.02;1680469;84;21567;-78
2021/12/14 04:17:39;;;;;;;18.15;13.03;;;;;;;3.09;79.75;101223.78;1707761;84;20998;-77
2021/12/14 04:20:17;;;;;;;19.12;13.10;;;;;;;3.14;79.76;101224.55;1737259;82;21006;-77
2021/12/14 04:22:48;;;;;;;17.20;13.15;;;;;;;3.14;79.59;101228.00;1737557;82;21505;-77
2021/12/14 04:25:19;;;;;;;19.50;14.03;;;;;;;3.14;79.51;101227.19;1758746;81;21049;-77
2021/12/14 04:27:46;;;;;;;19.27;13.65;;;;;;;3.12;79.41;101223.91;1759354;81;21098;-77
2021/12/14 04:30:15;;;;;;;21.62;14.50;;;;;;;3.10;79.31;101223.30;1727698;82;20997;-76
2021/12/14 04:32:52;;;;;;;18.52;13.50;;;;;;;3.05;79.26;101231.77;1708425;83;21062;-77
2021/12/14 04:35:19;;;;;;;17.70;12.80;;;;;;;3.03;79.31;101228.02;1731121;81;20964;-77
2021/12/14 04:37:55;;;;;;;19.12;13.40;;;;;;;3.01;79.22;101228.70;1730258;81;21007;-76
2021/12/14 04:54:53;;;;;;;18.20;13.53;;;;;;;2.85;79.50;101243.48;1720216;82;21795;-76
2021/12/14 04:57:34;;;;;;;20.02;13.38;;;;;;;2.86;79.48;101239.02;1737108;82;21560;-75
2021/12/14 05:00:30;;;;;;;18.12;13.58;;;;;;;2.88;79.58;101245.73;1727168;82;21564;-75
2021/12/14 05:03:00;;;;;;;18.42;12.95;;;;;;;2.91;79.59;101245.36;1735710;82;20990;-76
2021/12/14 05:05:33;;;;;;;18.12;12.68;;;;;;;2.95;79.61;101248.44;1736386;81;21045;-76
2021/12/14 05:11:03;;;;;;;18.40;12.40;;;;;;;2.96;79.53;101251.38;1740532;82;21529;-76
2021/12/14 05:13:35;;;;;;;18.40;12.78;;;;;;;2.92;79.45;101252.77;1740116;82;21096;-76
2021/12/14 05:16:03;;;;;;;17.77;12.37;;;;;;;2.88;79.50;101258.13;1733144;82;21013;-76
2021/12/14 05:18:31;;;;;;;18.32;13.30;;;;;;;2.89;79.45;101256.60;1737438;82;21116;-75
2021/12/14 05:20:58;;;;;;;17.75;11.88;;;;;;;2.85;79.42;101255.86;1737970;82;21060;-76
2021/12/14 05:23:31;;;;;;;17.52;12.75;;;;;;;2.84;79.49;101262.96;1727638;82;21077;-75
2021/12/14 05:26:01;;;;;;;16.67;12.37;;;;;;;2.83;79.51;101265.30;1685580;82;21041;-75
2021/12/14 05:28:30;;;;;;;18.90;13.18;;;;;;;2.85;79.54;101258.50;1736732;82;21406;-75
2021/12/14 05:30:59;;;;;;;19.67;13.85;;;;;;;2.82;79.52;101261.81;1737571;82;20947;-76
2021/12/14 05:33:35;;;;;;;18.55;13.25;;;;;;;2.84;79.62;101266.92;1737447;82;21006;-76
2021/12/14 05:36:08;;;;;;;18.40;13.45;;;;;;;2.84;79.67;101264.79;1737418;82;21004;-75
2021/12/14 05:44:20;;;;;;;18.32;13.15;;;;;;;2.86;79.70;101269.36;1737656;82;21481;-76
2021/12/14 05:46:50;;;;;;;21.25;14.80;;;;;;;2.88;79.67;101268.67;1736875;82;21132;-77
2021/12/14 05:49:23;;;;;;;19.80;14.28;;;;;;;2.87;79.64;101267.86;1729213;82;21047;-76
2021/12/14 05:51:51;;;;;;;19.77;14.07;;;;;;;2.86;79.65;101270.67;1708288;84;21089;-76
2021/12/14 05:54:24;;;;;;;20.43;13.75;;;;;;;2.80;79.64;101273.59;1711315;82;21048;-76
2021/12/14 05:56:54;;;;;;;20.92;14.05;;;;;;;2.76;79.65;101272.30;1707472;84;21005;-76
2021/12/14 05:59:25;;;;;;;18.40;13.75;;;;;;;2.71;79.70;101275.52;1707303;84;21153;-76
2021/12/14 06:01:53;;;;;;;18.77;14.18;;;;;;;2.69;79.79;101278.02;1706987;84;21132;-76
2021/12/14 06:04:19;;;;;;;20.08;14.15;;;;;;;2.72;79.87;101280.28;1717191;82;21096;-76
2021/12/14 06:06:52;;;;;;;20.52;14.20;;;;;;;2.72;79.93;101278.45;1734884;82;21065;-77
2021/12/14 06:09:25;;;;;;;19.37;13.78;;;;;;;2.70;79.97;101275.69;1753033;80;21170;-78
2021/12/14 06:12:11;;;;;;;20.05;14.13;;;;;;;2.69;80.06;101281.97;1711804;83;21138;-78
2021/12/14 06:14:51;;;;;;;19.52;13.93;;;;;;;2.70;80.16;101275.69;1722795;82;20948;-77
2021/12/14 06:17:08;;;;;;;19.90;14.73;;;;;;;2.72;80.18;101278.96;1757250;81;20967;-75
2021/12/14 06:19:41;;;;;;;19.05;14.03;;;;;;;2.72;80.19;101281.60;1757186;80;21041;-76
2021/12/14 06:22:16;;;;;;;19.62;15.63;;;;;;;2.71;80.19;101283.94;1729151;83;21053;-76
2021/12/14 06:24:47;;;;;;;20.85;14.78;;;;;;;2.69;80.33;101282.78;1729580;83;21118;-74
2021/12/14 06:27:19;;;;;;;20.27;14.87;;;;;;;2.71;80.35;101279.98;1729921;83;21001;-77
2021/12/14 06:29:53;;;;;;;20.52;14.98;;;;;;;2.75;80.42;101279.41;1727026;83;21122;-75
2021/12/14 06:32:28;;;;;;;19.50;14.30;;;;;;;2.79;80.34;101292.53;1700571;83;21093;-76
2021/12/14 06:35:03;;;;;;;21.62;16.35;;;;;;;2.78;80.29;101292.73;1714901;83;21033;-76
2021/12/14 06:38:07;;;;;;;23.40;16.25;;;;;;;2.76;80.32;101294.73;1758693;81;21141;-76
2021/12/14 06:40:27;;;;;;;23.25;15.85;;;;;;;2.78;80.35;101290.09;1754017;81;21556;-77
2021/12/14 06:42:58;;;;;;;25.05;16.73;;;;;;;2.82;80.36;101284.75;1720302;81;21546;-75
2021/12/14 06:45:36;;;;;;;25.62;17.12;;;;;;;2.85;80.37;101287.02;1680164;85;21018;-76
2021/12/14 06:48:08;;;;;;;25.23;17.23;;;;;;;2.83;80.28;101295.64;1717025;82;20986;-75
2021/12/14 06:50:48;;;;;;;24.55;17.10;;;;;;;2.81;80.29;101289.21;1701715;82;21041;-76
2021/12/14 06:53:18;;;;;;;25.95;17.75;;;;;;;2.82;80.34;101293.47;1735060;82;21041;-76
2021/12/14 06:56:08;;;;;;;25.60;17.50;;;;;;;2.85;80.33;101284.37;1737077;82;20978;-75
2021/12/14 06:58:57;;;;;;;28.45;18.25;;;;;;;2.87;80.32;101282.38;1737582;82;20999;-74
2021/12/14 07:01:32;;;;;;;28.62;18.70;;;;;;;2.89;80.28;101283.49;1735418;82;21050;-74
2021/12/14 07:04:05;;;;;;;31.30;19.67;;;;;;;2.89;80.26;101277.70;1737545;82;21156;-74
2021/12/14 07:06:49;;;;;;;;;;;;;;;2.88;80.20;101281.36;1739934;82;21315;-76
2021/12/14 07:09:33;;;;;;;29.70;19.95;;;;;;;2.88;80.19;101289.27;1737419;82;20352;-75
2021/12/14 07:12:10;;;;;;;28.32;19.27;;;;;;;2.87;80.18;101292.92;1736502;82;20969;-75
2021/12/14 07:14:43;;;;;;;30.68;19.82;;;;;;;2.87;80.17;101292.92;1737378;82;21015;-75
2021/12/14 07:17:16;;;;;;;27.45;17.73;;;;;;;2.86;80.12;101299.19;1758838;81;21182;-75
2021/12/14 07:19:59;;;;;;;29.00;17.75;;;;;;;2.89;80.11;101298.81;1702297;83;20951;-75
2021/12/14 07:22:51;;;;;;;27.73;18.07;;;;;;;2.86;80.08;101301.02;1699004;84;21004;-76
2021/12/14 07:25:37;;;;;;;24.00;17.32;;;;;;;2.88;80.13;101302.47;1679887;84;20971;-76
2021/12/14 07:28:16;;;;;;;26.07;17.92;;;;;;;2.86;80.07;101300.51;1701694;84;21007;-75
2021/12/14 07:30:53;;;;;;;25.30;17.55;;;;;;;2.85;80.06;101300.71;1725310;81;22069;-75
2021/12/14 07:33:33;;;;;;;23.83;16.27;;;;;;;2.87;80.10;101301.35;1729041;83;20979;-74
2021/12/14 07:36:06;;;;;;;27.00;17.37;;;;;;;2.90;80.12;101297.84;1734339;82;21053;-75
2021/12/14 07:38:46;;;;;;;28.55;18.65;;;;;;;2.91;80.02;101296.01;1736165;81;21581;-74
2021/12/14 07:41:36;;;;;;;25.90;17.15;;;;;;;2.90;80.02;101300.47;1736655;82;21140;-73
2021/12/14 07:44:18;;;;;;;28.27;17.60;;;;;;;2.93;80.08;101302.73;1737565;82;23046;-75
2021/12/14 07:47:02;;;;;;;24.95;17.25;;;;;;;2.94;80.02;101306.19;1722761;82;21058;-74
2021/12/14 07:49:42;;;;;;;27.42;17.85;;;;;;;2.97;79.98;101315.05;1708205;84;21489;-74
2021/12/14 07:52:14;;;;;;;28.57;17.98;;;;;;;2.97;79.94;101305.30;1708938;82;21043;-73
2021/12/14 07:54:58;;;;;;;28.70;17.57;;;;;;;3.02;79.90;101306.86;1707928;84;21063;-74
2021/12/14 07:57:29;;;;;;;24.85;16.95;;;;;;;3.08;79.81;101305.80;1709245;82;21158;-74
2021/12/14 08:00:19;;;;;;;24.85;16.90;;;;;;;3.14;79.77;101306.38;1708759;82;21425;-72
2021/12/14 08:02:55;;;;;;;22.55;16.27;;;;;;;3.21;79.71;101313.34;1707776;84;21531;-73
2021/12/14 08:05:35;;;;;;;22.75;15.45;;;;;;;3.20;79.55;101310.90;1707933;84;20984;-74
2021/12/14 08:08:13;;;;;;;19.60;13.90;;;;;;;3.17;79.47;101313.91;1707786;84;47969;-74
2021/12/14 08:10:45;;;;;;;19.45;13.85;;;;;;;3.11;79.32;101308.88;1707625;84;21149;-74
2021/12/14 08:13:16;;;;;;;20.23;14.78;;;;;;;3.04;79.26;101309.33;1707634;82;21033;-74
2021/12/14 08:15:50;;;;;;;22.02;15.00;;;;;;;3.02;79.32;101308.18;1709187;82;21133;-74
2021/12/14 08:18:26;;;;;;;21.10;13.68;;;;;;;3.03;79.31;101309.02;1737350;82;20958;-74
2021/12/14 08:21:09;;;;;;;18.85;13.68;;;;;;;3.02;79.36;101307.37;1737238;82;21017;-74
2021/12/14 08:23:59;;;;;;;19.48;14.68;;;;;;;3.03;79.32;101307.70;1708212;83;21117;-74
2021/12/14 08:26:34;;;;;;;19.80;13.60;;;;;;;3.00;79.33;101308.89;1707929;84;21024;-74
2021/12/14 08:29:17;;;;;;;19.67;14.68;;;;;;;3.00;79.29;101311.53;1709353;82;21067;-75
2021/12/14 08:31:58;;;;;;;17.30;12.68;;;;;;;2.97;79.32;101311.91;1707727;84;20980;-75
2021/12/14 08:34:28;;;;;;;18.20;12.60;;;;;;;2.98;79.28;101316.16;1715330;82;20990;-76
2021/12/14 08:37:07;;;;;;;18.98;14.18;;;;;;;2.98;79.18;101302.97;1737303;82;21102;-75
2021/12/14 08:39:45;;;;;;;20.82;15.00;;;;;;;2.96;79.32;101304.16;1710104;82;21001;-75
2021/12/14 08:42:31;;;;;;;17.85;12.93;;;;;;;2.96;79.33;101300.20;1708790;82;21516;-76
2021/12/14 08:44:58;;;;;;;21.87;14.70;;;;;;;3.00;79.38;101305.44;1707561;84;21520;-76
2021/12/14 08:47:30;;;;;;;21.10;14.73;;;;;;;3.05;79.39;101304.35;1728665;83;21073;-76
2021/12/14 08:50:01;;;;;;;22.73;15.43;;;;;;;3.12;79.45;101308.37;1728607;83;21065;-77
2021/12/14 08:52:29;;;;;;;20.30;14.33;;;;;;;3.18;79.39;101310.27;1699436;83;21048;-75
2021/12/14 08:54:59;;;;;;;21.93;15.43;;;;;;;3.24;79.27;101303.72;1679766;85;21022;-75
2021/12/14 08:57:28;;;;;;;19.62;14.43;;;;;;;3.29;79.19;101297.86;1708119;84;21568;-77
2021/12/14 09:00:01;;;;;;;18.85;14.80;;;;;;;3.34;79.06;101299.94;1728621;83;21014;-74
2021/12/14 09:02:31;;;;;;;21.42;14.93;;;;;;;3.34;78.99;101299.94;1728449;83;21129;-76
2021/12/14 09:05:12;;;;;;;21.45;15.05;;;;;;;3.37;78.87;101303.02;1699323;83;20980;-75
2021/12/14 09:07:39;;;;;;;20.32;14.55;;;;;;;3.40;78.80;101304.47;1679811;85;21493;-76
2021/12/14 09:10:12;;;;;;;20.02;14.63;;;;;;;3.43;78.74;101296.98;1708081;84;20982;-75
2021/12/14 09:12:42;;;;;;;18.45;13.80;;;;;;;3.46;78.57;101300.55;1708036;84;21014;-76
2021/12/14 09:15:14;;;;;;;20.75;14.03;;;;;;;3.44;78.47;101295.95;1711226;82;21138;-76
2021/12/14 09:17:41;;;;;;;20.72;14.70;;;;;;;3.42;78.34;101294.03;1737794;82;20950;-76
2021/12/14 09:20:19;;;;;;;19.12;14.73;;;;;;;3.43;78.32;101286.41;1737575;82;20998;-76
2021/12/14 09:22:51;;;;;;;20.32;14.18;;;;;;;3.44;78.23;101292.00;1758663;81;21187;-75
2021/12/14 09:25:20;;;;;;;20.35;14.55;;;;;;;3.47;78.22;101282.38;1759229;81;20975;-75
2021/12/14 09:27:47;;;;;;;19.67;13.83;;;;;;;3.50;78.16;101286.46;1728615;83;21449;-75
2021/12/14 09:30:16;;;;;;;20.62;14.23;;;;;;;3.52;78.08;101288.38;1708284;83;22357;-76
2021/12/14 09:32:43;;;;;;;18.48;14.58;;;;;;;3.53;78.02;101282.92;1737459;82;21074;-75
2021/12/14 09:35:16;;;;;;;18.17;14.68;;;;;;;3.55;78.00;101282.72;1737837;82;20970;-76
2021/12/14 09:37:45;;;;;;;19.00;13.53;;;;;;;3.58;77.81;101284.17;1737611;82;21050;-76
2021/12/14 09:40:18;;;;;;;18.85;14.25;;;;;;;3.57;77.70;101282.55;1737756;82;21107;-75
2021/12/14 09:42:44;;;;;;;18.23;13.13;;;;;;;3.53;77.70;101284.25;1736811;82;21025;-75
2021/12/14 09:45:20;;;;;;;18.42;14.00;;;;;;;3.57;77.70;101285.19;1758957;81;21029;-74
2021/12/14 09:47:47;;;;;;;16.82;13.00;;;;;;;3.55;77.56;101289.83;1757526;81;20955;-75
2021/12/14 09:50:27;;;;;;;19.40;13.88;;;;;;;3.50;77.45;101283.31;1728900;81;20982;-75
2021/12/14 09:52:57;;;;;;;17.65;13.55;;;;;;;3.45;77.35;101281.73;1708217;83;21113;-75
2021/12/14 09:55:28;;;;;;;21.52;15.10;;;;;;;3.41;77.44;101283.14;1731064;81;21082;-75
2021/12/14 09:58:03;;;;;;;18.65;13.75;;;;;;;3.42;77.50;101280.83;1731090;82;21506;-75
2021/12/14 10:00:38;;;;;;;18.85;14.43;;;;;;;3.40;77.43;101280.19;1731093;82;21116;-75
2021/12/14 10:03:07;;;;;;;19.73;14.65;;;;;;;3.35;77.46;101283.89;1730827;82;21023;-75
2021/12/14 10:05:41;;;;;;;21.25;14.78;;;;;;;3.35;77.55;101281.77;1731271;82;21400;-75
2021/12/14 10:08:17;;;;;;;20.02;15.35;;;;;;;3.38;77.65;101274.27;1730553;82;20943;-74
2021/12/14 10:11:03;;;;;;;21.25;15.78;;;;;;;3.41;77.63;101272.57;1729585;83;21600;-74
2021/12/14 10:13:28;;;;;;;23.30;16.00;;;;;;;3.44;77.66;101268.23;1731015;82;21157;-74
2021/12/14 10:15:56;;;;;;;22.15;16.32;;;;;;;3.48;77.67;101267.34;1702543;82;21422;-73
2021/12/14 10:18:30;;;;;;;20.92;15.38;;;;;;;3.52;77.68;101264.61;1701793;84;21130;-73
2021/12/14 10:21:25;;;;;;;21.57;15.55;;;;;;;3.57;77.68;101266.19;1701686;83;21007;-73
2021/12/14 10:23:54;;;;;;;20.65;15.00;;;;;;;3.60;77.64;101267.13;1701630;83;21066;-74
2021/12/14 10:26:22;;;;;;;21.60;15.25;;;;;;;3.62;77.50;101264.27;1701759;83;21002;-74
2021/12/14 10:28:53;;;;;;;18.92;14.23;;;;;;;3.61;77.43;101262.66;1701910;84;20999;-73
2021/12/14 10:31:28;;;;;;;18.40;13.32;;;;;;;3.60;77.33;101259.20;1701391;83;21912;-73
2021/12/14 10:33:56;;;;;;;17.92;13.40;;;;;;;3.59;77.19;101262.05;1701817;83;21082;-73
2021/12/14 10:36:30;;;;;;;19.77;13.93;;;;;;;3.55;77.02;101258.14;1707571;83;21093;-73
2021/12/14 10:39:19;;;;;;;22.52;15.40;;;;;;;3.48;76.88;101250.98;1723318;82;21003;-73
2021/12/14 10:44:22;;;;;;;21.17;15.30;;;;;;;3.42;76.93;101245.66;1728498;83;21054;-73
2021/12/14 10:46:51;;;;;;;23.30;14.93;;;;;;;3.43;77.03;101245.48;1699210;84;21066;-73
2021/12/14 10:49:20;;;;;;;18.73;13.30;;;;;;;3.46;77.06;101246.92;1728696;83;21038;-74
2021/12/14 10:51:51;;;;;;;17.05;12.60;;;;;;;3.50;77.08;101248.16;1705020;83;20987;-74
2021/12/14 10:54:18;;;;;;;17.70;12.73;;;;;;;3.49;76.94;101251.83;1746642;82;21039;-74
2021/12/14 10:56:52;;;;;;;19.37;13.53;;;;;;;3.47;76.93;101259.11;1746015;81;21484;-74
2021/12/14 10:59:23;;;;;;;17.35;12.85;;;;;;;3.43;76.93;101258.69;1746044;82;20952;-74
2021/12/14 11:01:51;;;;;;;17.52;13.00;;;;;;;3.40;76.89;101263.53;1746391;82;21517;-74
2021/12/14 11:04:34;;;;;;;18.50;13.40;;;;;;;3.37;76.91;101260.77;1746265;82;21019;-74
2021/12/14 11:07:00;;;;;;;16.80;11.75;;;;;;;3.33;76.91;101262.67;1745463;81;21095;-74
2021/12/14 11:12:09;;;;;;;17.67;12.68;;;;;;;3.22;77.02;101271.91;1740381;81;20948;-73
2021/12/14 11:14:37;;;;;;;16.07;12.18;;;;;;;3.17;77.10;101269.85;1717907;82;21157;-73
2021/12/14 11:20:02;;;;;;;18.07;13.30;;;;;;;3.13;77.27;101272.57;1746508;82;21007;-74
2021/12/14 11:22:43;;;;;;;17.77;13.32;;;;;;;3.15;77.41;101269.72;1745439;82;22005;-73
2021/12/14 11:25:16;;;;;;;19.20;13.32;;;;;;;3.18;77.51;101272.80;1703940;82;20967;-73
2021/12/14 11:27:48;;;;;;;19.80;14.18;;;;;;;3.25;77.58;101267.57;1745939;81;21188;-73
2021/12/14 11:30:23;;;;;;;20.97;14.00;;;;;;;3.29;77.63;101266.17;1746118;82;20993;-72
2021/12/14 11:33:17;;;;;;;20.48;15.05;;;;;;;3.33;77.62;101267.95;1745938;81;20955;-72
2021/12/14 11:36:02;;;;;;;23.25;17.02;;;;;;;3.34;77.61;101267.75;1745969;82;21161;-72
2021/12/14 11:38:48;;;;;;;24.75;16.02;;;;;;;3.33;77.63;101268.77;1745997;82;21004;-73
2021/12/14 11:41:50;;;;;;;21.95;14.13;;;;;;;3.37;77.64;101261.28;1746170;82;21058;-73
2021/12/14 11:44:37;;;;;;;22.13;16.30;;;;;;;3.37;77.64;101259.45;1722906;82;21019;-72
2021/12/14 11:50:07;;;;;;;23.65;15.70;;;;;;;3.41;77.59;101258.05;1746644;82;26570;-72
2021/12/14 11:53:11;;;;;;;24.82;15.83;;;;;;;3.40;77.49;101260.39;1745879;81;21047;-73
2021/12/14 11:56:02;;;;;;;23.22;16.02;;;;;;;3.35;77.42;101258.81;1725579;82;21007;-72
2021/12/14 11:58:40;;;;;;;23.20;15.95;;;;;;;3.33;77.47;101260.03;1745930;82;21109;-72
2021/12/14 12:01:35;;;;;;;22.73;14.68;;;;;;;3.34;77.47;101263.79;1738879;82;21446;-72
2021/12/14 12:04:16;;;;;;;24.02;15.25;;;;;;;3.30;77.42;101258.59;1746101;82;21148;-72
2021/12/14 12:09:37;;;;;;;20.27;14.07;;;;;;;3.28;77.50;101257.95;1746074;82;20944;-72
2021/12/14 12:12:18;;;;;;;21.68;15.13;;;;;;;3.24;77.47;101256.70;1738439;81;21034;-72
2021/12/14 12:15:10;;;;;;;21.68;14.75;;;;;;;3.17;77.50;101255.33;1703787;84;21006;-73
2021/12/14 12:17:45;;;;;;;22.85;15.25;;;;;;;3.13;77.54;101254.59;1720260;82;21159;-73
2021/12/14 12:20:26;;;;;;;21.07;15.23;;;;;;;3.10;77.64;101255.79;1715785;83;21046;-73
2021/12/14 12:23:01;;;;;;;23.25;15.72;;;;;;;3.12;77.77;101254.27;1716378;83;21018;-73
2021/12/14 12:25:45;;;;;;;20.85;15.18;;;;;;;3.14;77.78;101254.91;1716244;83;21058;-72
2021/12/14 12:28:14;;;;;;;;;;;;;;;3.12;77.82;101256.91;1731499;82;21010;-72
2021/12/14 12:31:06;;;;;;;21.87;13.98;;;;;;;3.12;77.89;101265.63;1746186;80;21524;-73
2021/12/14 12:33:37;;;;;;;22.65;14.93;;;;;;;3.06;77.91;101263.78;1713767;81;21006;-72
2021/12/14 12:36:14;;;;;;;19.20;13.25;;;;;;;3.01;78.07;101263.02;1740454;82;21023;-73
2021/12/14 12:38:53;;;;;;;22.30;15.05;;;;;;;3.00;78.18;101261.89;1740266;82;20990;-72
2021/12/14 12:41:37;;;;;;;22.40;15.05;;;;;;;2.99;78.31;101263.69;1758770;81;20992;-73